Memphis International Airport
KMEM : now visible

Airfield :











YOU CAN JOIN US ON...

 
LOGIN :

Register | Disclaimer

   EN    FR    IT 

 









Legend :    VFR   Marginal VFR   IFR   Intensive IFR   Very Intensive IFR
Visi :
Ceiling :
>= 8 km
>= 3000ft
5 to 8 km
1000 to 3000 ft
1500m to 5 km
500 to 1000 ft
800 to 1500m
200 to 500 ft
< 800m
< 200 ft
Symbols :   Thunderstorms  Fog  Heavy snow  Heavy precipitations  Wind > 20 kt






- Airport Elevation : 341 ft
- IATA code : MEM


KMEM - Memphis International

CURRENT METAR :
  • 282154Z 20008KT 10SM SCT036 16/08 A2997 RMK AO2 SLP147 T01560083

EXPIRED METARs :
  • 282140Z 21007KT 10SM SCT036 16/08 A2997 RMK AO2 T01560083
  • 282054Z 20006KT 10SM BKN036 16/08 A2996 RMK AO2 SLP145 BKN V SCT T01560078 55011
  • 282041Z 21005KT 10SM BKN037 16/08 A2996 RMK AO2 BKN V SCT T01610078
  • 281954Z 24007KT 200V280 10SM SCT035 16/08 A2996 RMK AO2 SLP144 SCT V BKN T01610078

TAF KMEM
Valid from the 28 at 21:00 until the 30 at 00:00 UTC


282040Z 2821/2924 24008KT P6SM SCT040
FM290000 17004KT P6SM SCT030
FM291500 16010KT P6SM VCSH SCT025 SCT100
FM291800 18015G20KT P6SM VCTS OVC020CB WS020/21040KT
KZME FIR / North America



MET'MAP, your aeronautical weather chart ! - Copyright ORBIFLY December 2007 - Disclaimer

ORBIFLY MET'MAP TEAM :

Programming & Development : Alexandra Zaïnal
Original concept : Baudouin d'Aumeries
Technical & hardware support : Manuel Goepfert
Assistance : Marc-Olivier Méhu




SOURCES & CREDITS :

   NOAA       Earth
Advisory